Time;durP1;ratioP1;P1;durP2;ratioP2;P2;SDS_P1;SDS_P2;PMS_P1;PMS_P2;Temp;Humidity;BMP_temperature;BMP_pressure;BME280_temperature;BME280_humidity;BME280_pressure;Samples;Min_cycle;Max_cycle;Signal;HPM_P1;HPM_P2
2022/03/04 00:01:17;;;;;;;18.85;9.63;;;;;;;-4.23;99.71;94658.06;5105731;28;20039;-46
2022/03/04 00:03:45;;;;;;;21.75;11.63;;;;;;;-4.32;100.00;94653.78;5106813;28;20715;-46
2022/03/04 00:06:12;;;;;;;32.05;14.82;;;;;;;-4.20;100.00;94667.91;5106681;28;20047;-47
2022/03/04 00:08:38;;;;;;;26.52;14.20;;;;;;;-4.22;100.00;94659.63;5111104;27;20047;-49
2022/03/04 00:11:05;;;;;;;35.83;15.00;;;;;;;-4.26;100.00;94659.13;5110303;27;20115;-47
2022/03/04 00:13:32;;;;;;;22.38;14.63;;;;;;;-4.30;100.00;94667.19;5110187;27;20501;-47
2022/03/04 00:16:00;;;;;;;29.38;14.65;;;;;;;-4.42;100.00;94664.84;5112185;27;20059;-46
2022/03/04 00:18:27;;;;;;;24.88;11.82;;;;;;;-4.49;100.00;94673.97;5111141;27;20055;-47
2022/03/04 00:20:54;;;;;;;23.10;11.48;;;;;;;-4.58;100.00;94664.66;5109956;27;20043;-45
2022/03/04 00:23:21;;;;;;;31.25;13.27;;;;;;;-4.75;100.00;94657.78;5109775;27;20067;-45
2022/03/04 00:25:48;;;;;;;15.98;9.85;;;;;;;-4.65;100.00;94668.72;5110057;27;20047;-47
2022/03/04 00:28:14;;;;;;;22.05;12.45;;;;;;;-4.68;100.00;94669.81;5111531;27;20097;-46
2022/03/04 00:30:41;;;;;;;28.42;14.10;;;;;;;-4.70;99.62;94660.69;5111235;27;20579;-45
2022/03/04 00:33:08;;;;;;;20.77;12.50;;;;;;;-4.72;99.61;94670.22;5111059;27;20054;-47
2022/03/04 00:35:35;;;;;;;18.50;9.52;;;;;;;-4.73;100.00;94666.09;5110876;27;20036;-45
2022/03/04 00:38:02;;;;;;;33.80;14.23;;;;;;;-4.74;100.00;94669.56;5109657;27;20043;-45
2022/03/04 00:40:29;;;;;;;21.17;9.30;;;;;;;-4.76;100.00;94656.19;5110795;27;20507;-46
2022/03/04 00:42:55;;;;;;;25.30;11.25;;;;;;;-4.80;100.00;94660.75;5110410;27;20044;-46
2022/03/04 00:45:22;;;;;;;20.75;12.00;;;;;;;-4.80;100.00;94648.84;5110487;27;20051;-48
2022/03/04 00:47:49;;;;;;;20.63;9.13;;;;;;;-4.82;100.00;94658.34;5110859;27;20063;-46
2022/03/04 00:50:16;;;;;;;15.70;9.27;;;;;;;-4.80;100.00;94648.84;5106799;27;20419;-45
2022/03/04 00:52:42;;;;;;;16.33;9.32;;;;;;;-4.84;100.00;94652.63;5110957;27;20054;-47
2022/03/04 00:55:09;;;;;;;14.82;8.30;;;;;;;-4.80;100.00;94655.69;5110566;27;20032;-45
2022/03/04 00:57:36;;;;;;;16.38;8.88;;;;;;;-4.82;100.00;94650.72;5108905;27;20043;-47
2022/03/04 01:00:05;;;;;;;20.13;10.15;;;;;;;-4.83;100.00;94641.50;5109867;27;20572;-47
2022/03/04 01:02:32;;;;;;;19.45;9.30;;;;;;;-4.83;100.00;94641.50;5106939;27;20040;-46
2022/03/04 01:04:59;;;;;;;22.67;10.13;;;;;;;-4.82;100.00;94643.09;5107897;27;20482;-47
2022/03/04 01:07:26;;;;;;;17.92;9.43;;;;;;;-4.89;100.00;94637.00;5109284;27;20052;-47
2022/03/04 01:09:53;;;;;;;21.05;11.23;;;;;;;-4.94;100.00;94635.81;5110490;27;20097;-46
2022/03/04 01:12:20;;;;;;;21.38;9.40;;;;;;;-4.96;100.00;94635.94;5106821;27;20043;-47
2022/03/04 01:14:47;;;;;;;23.95;10.98;;;;;;;-5.01;100.00;94640.66;5109117;27;20481;-48
2022/03/04 01:17:14;;;;;;;28.45;14.85;;;;;;;-4.98;100.00;94640.38;5106999;27;20050;-46
2022/03/04 01:19:40;;;;;;;34.35;16.30;;;;;;;-4.91;100.00;94638.88;5107285;27;20039;-45
2022/03/04 01:22:07;;;;;;;33.58;17.45;;;;;;;-4.83;100.00;94636.41;5113502;27;20531;-47
2022/03/04 01:24:34;;;;;;;35.95;17.77;;;;;;;-4.77;100.00;94626.63;5112692;27;20046;-46
2022/03/04 01:27:01;;;;;;;41.38;16.95;;;;;;;-4.75;100.00;94632.38;5115237;27;20044;-50
2022/03/04 01:29:27;;;;;;;32.88;15.70;;;;;;;-4.77;100.00;94626.63;5111401;27;20051;-46
2022/03/04 01:31:54;;;;;;;33.45;15.52;;;;;;;-4.75;100.00;94619.66;5113645;27;20044;-46
2022/03/04 01:34:21;;;;;;;33.40;13.18;;;;;;;-4.75;100.00;94617.13;5110812;27;20045;-45
2022/03/04 01:36:48;;;;;;;32.00;16.55;;;;;;;-4.83;100.00;94623.72;5111557;27;20077;-50
2022/03/04 01:39:14;;;;;;;24.17;15.07;;;;;;;-4.89;100.00;94621.75;5112786;27;20039;-47
2022/03/04 01:41:41;;;;;;;21.88;13.05;;;;;;;-4.84;100.00;94619.59;5111234;27;20043;-51
2022/03/04 01:44:08;;;;;;;17.98;11.25;;;;;;;-4.84;100.00;94619.59;5111215;27;20413;-45
2022/03/04 01:46:35;;;;;;;27.33;13.07;;;;;;;-4.88;100.00;94618.28;5108479;27;20057;-46
2022/03/04 01:49:03;;;;;;;22.25;11.13;;;;;;;-4.90;100.00;94625.22;5108263;27;20050;-47
2022/03/04 01:51:30;;;;;;;17.80;10.90;;;;;;;-4.92;100.00;94609.31;5109838;27;20047;-46
2022/03/04 01:53:57;;;;;;;20.77;12.38;;;;;;;-4.90;100.00;94616.81;5110024;27;20043;-47
2022/03/04 01:56:24;;;;;;;21.52;10.18;;;;;;;-4.89;100.00;94615.88;5109912;27;20047;-47
2022/03/04 01:58:51;;;;;;;20.85;11.45;;;;;;;-4.89;100.00;94614.13;5109568;27;20063;-46
2022/03/04 02:01:18;;;;;;;25.58;12.38;;;;;;;-4.86;100.00;94616.38;5109856;27;20055;-45
2022/03/04 02:03:46;;;;;;;22.23;11.27;;;;;;;-4.88;100.00;94612.38;5109578;27;20093;-46
2022/03/04 02:06:13;;;;;;;20.77;11.57;;;;;;;-4.89;100.00;94611.59;5110834;27;20051;-46
2022/03/04 02:08:40;;;;;;;17.75;10.48;;;;;;;-4.92;100.00;94605.97;5111807;27;20047;-46
2022/03/04 02:11:07;;;;;;;21.73;12.10;;;;;;;-5.03;100.00;94591.72;5117243;27;20059;-45
2022/03/04 02:13:35;;;;;;;24.20;11.52;;;;;;;-5.01;100.00;94592.38;5110708;27;20044;-45
2022/03/04 02:16:03;;;;;;;20.67;10.35;;;;;;;-4.93;100.00;94595.03;5110366;27;20050;-46
2022/03/04 02:18:29;;;;;;;25.95;12.20;;;;;;;-4.94;100.00;94603.59;5110691;27;20039;-46
2022/03/04 02:21:02;;;;;;;16.38;9.90;;;;;;;-4.99;100.00;94585.41;5110603;27;20068;-48
2022/03/04 02:23:28;;;;;;;25.02;11.13;;;;;;;-4.93;100.00;94595.03;5110383;27;20050;-48
2022/03/04 02:25:55;;;;;;;19.48;10.75;;;;;;;-5.04;100.00;94587.56;5110164;27;20044;-47
2022/03/04 02:28:22;;;;;;;20.35;11.15;;;;;;;-4.94;100.00;94606.13;5110017;27;20697;-47
2022/03/04 02:30:49;;;;;;;21.73;11.77;;;;;;;-4.98;100.00;94602.28;5109042;27;20586;-48
2022/03/04 02:33:16;;;;;;;28.10;12.50;;;;;;;-5.02;100.00;94606.03;5109331;27;20520;-46
2022/03/04 02:35:43;;;;;;;25.98;12.68;;;;;;;-5.05;100.00;94588.53;5109957;27;20053;-48
2022/03/04 02:38:10;;;;;;;24.63;11.93;;;;;;;-5.06;100.00;94594.53;5109900;27;20070;-46
2022/03/04 02:40:37;;;;;;;27.73;12.50;;;;;;;-5.03;100.00;94600.16;5107239;27;20092;-45
2022/03/04 02:43:04;;;;;;;23.05;11.73;;;;;;;-5.05;100.00;94596.16;5108368;27;20061;-46
2022/03/04 02:45:32;;;;;;;28.80;11.73;;;;;;;-5.06;100.00;94595.38;5089742;27;20039;-46
2022/03/04 02:47:59;;;;;;;22.55;11.48;;;;;;;-5.18;100.00;94574.41;5108108;27;20158;-47
2022/03/04 02:50:26;;;;;;;20.33;12.05;;;;;;;-5.12;100.00;94590.81;5107195;27;20035;-46
2022/03/04 02:52:53;;;;;;;30.73;10.40;;;;;;;-5.11;100.00;94591.63;5088994;27;20124;-45
2022/03/04 02:55:20;;;;;;;18.45;10.25;;;;;;;-5.10;100.00;94593.22;5108424;27;20485;-45
2022/03/04 02:58:11;;;;;;;26.13;11.65;;;;;;;-5.18;100.00;94592.19;5108890;27;20131;-46
2022/03/04 03:00:38;;;;;;;17.95;11.68;;;;;;;-5.12;100.00;94600.19;5109433;27;20466;-45
2022/03/04 03:03:05;;;;;;;27.27;12.07;;;;;;;-5.11;100.00;94586.53;5108940;27;20500;-45
2022/03/04 03:05:32;;;;;;;20.52;13.63;;;;;;;-5.27;100.00;94577.81;5094764;27;20051;-45
2022/03/04 03:07:59;;;;;;;23.38;11.35;;;;;;;-5.32;100.00;94590.13;5109485;27;20047;-47
2022/03/04 03:10:26;;;;;;;20.25;11.18;;;;;;;-5.29;100.00;94594.91;5113647;27;20055;-46
2022/03/04 03:12:53;;;;;;;20.50;11.65;;;;;;;-5.38;100.00;94590.69;5110537;28;20052;-48
2022/03/04 03:15:19;;;;;;;16.90;9.18;;;;;;;-5.40;100.00;94588.28;5109230;28;20035;-47
2022/03/04 03:17:46;;;;;;;17.88;8.85;;;;;;;-5.48;100.00;94600.06;5109723;27;20577;-47
2022/03/04 03:20:13;;;;;;;14.63;8.65;;;;;;;-5.54;100.00;94600.63;5111171;28;20044;-46
2022/03/04 03:22:40;;;;;;;10.63;7.43;;;;;;;-5.62;100.00;94589.41;5108654;28;20100;-47
2022/03/04 03:25:07;;;;;;;20.33;11.52;;;;;;;-5.67;100.00;94591.56;5108701;28;20528;-48
2022/03/04 03:27:34;;;;;;;18.83;9.43;;;;;;;-5.63;100.00;94592.88;5108995;28;20047;-46
2022/03/04 03:30:03;;;;;;;14.98;9.80;;;;;;;-5.58;100.00;94600.09;5108600;28;20386;-50
2022/03/04 03:32:29;;;;;;;18.83;8.98;;;;;;;-5.51;100.00;94600.31;5109300;28;20047;-46
2022/03/04 03:34:56;;;;;;;26.70;10.10;;;;;;;-5.45;100.00;94594.72;5110554;28;20044;-46
2022/03/04 03:37:23;;;;;;;17.35;9.30;;;;;;;-5.48;100.00;94589.91;5109147;28;20050;-47
2022/03/04 03:39:50;;;;;;;19.67;10.50;;;;;;;-5.42;100.00;94602.03;5112761;28;20042;-47
2022/03/04 03:42:17;;;;;;;25.08;13.18;;;;;;;-5.41;100.00;94606.19;5112904;27;20051;-49
2022/03/04 03:44:44;;;;;;;19.25;11.15;;;;;;;-5.40;100.00;94597.63;5113735;27;20044;-46
2022/03/04 03:47:11;;;;;;;20.88;10.43;;;;;;;-5.43;100.00;94603.78;5114173;27;20512;-45
2022/03/04 03:49:39;;;;;;;20.88;11.57;;;;;;;-5.41;100.00;94596.81;5112048;27;20126;-47
2022/03/04 03:52:06;;;;;;;20.02;11.55;;;;;;;-5.33;100.00;94603.75;5113181;27;20122;-46
2022/03/04 03:54:34;;;;;;;26.73;10.70;;;;;;;-5.35;100.00;94592.91;5112728;27;20035;-46
2022/03/04 03:57:01;;;;;;;21.48;12.77;;;;;;;-5.26;100.00;94599.72;5111297;27;20070;-47
2022/03/04 03:59:28;;;;;;;27.38;13.20;;;;;;;-5.24;100.00;94602.94;5114018;27;20055;-46
2022/03/04 04:01:54;;;;;;;23.25;13.30;;;;;;;-5.27;100.00;94602.41;5112345;27;20046;-47
2022/03/04 04:04:21;;;;;;;31.08;14.10;;;;;;;-5.33;100.00;94608.84;5114081;27;20062;-46
2022/03/04 04:06:48;;;;;;;25.55;13.52;;;;;;;-5.33;100.00;94608.84;5113596;27;20050;-46
2022/03/04 04:09:15;;;;;;;21.85;13.80;;;;;;;-5.40;100.00;94607.78;5112493;27;20069;-47
2022/03/04 04:11:42;;;;;;;33.95;16.55;;;;;;;-5.45;100.00;94599.78;5111772;27;20055;-46
2022/03/04 04:14:09;;;;;;;31.05;18.17;;;;;;;-5.49;100.00;94608.59;5112071;27;20054;-46
2022/03/04 04:16:37;;;;;;;38.75;17.20;;;;;;;-5.45;100.00;94609.94;5110629;27;20572;-46
2022/03/04 04:19:04;;;;;;;23.30;12.88;;;;;;;-5.46;100.00;94614.19;5112018;27;20042;-46
2022/03/04 04:21:31;;;;;;;26.35;13.00;;;;;;;-5.55;100.00;94609.16;5111835;27;20035;-47
2022/03/04 04:23:58;;;;;;;23.98;13.50;;;;;;;-5.65;100.00;94609.97;5112721;27;20116;-46
2022/03/04 04:26:26;;;;;;;22.42;12.05;;;;;;;-5.74;100.00;94620.94;5114913;27;20437;-47
2022/03/04 04:28:53;;;;;;;20.73;11.93;;;;;;;-5.81;100.00;94619.91;5114406;27;20085;-47
2022/03/04 04:31:19;;;;;;;26.25;11.90;;;;;;;-5.84;100.00;94615.88;5114492;27;20104;-45
2022/03/04 04:33:46;;;;;;;21.38;12.20;;;;;;;-5.90;100.00;94615.63;5111833;27;20035;-46
2022/03/04 04:36:13;;;;;;;20.17;10.95;;;;;;;-5.90;100.00;94615.63;5111495;27;20574;-48
2022/03/04 04:38:40;;;;;;;24.67;12.40;;;;;;;-5.91;100.00;94619.09;5112663;27;20052;-46
2022/03/04 04:41:07;;;;;;;28.05;10.88;;;;;;;-5.91;100.00;94624.16;5110511;27;20052;-46
2022/03/04 04:43:34;;;;;;;64.68;23.48;;;;;;;-5.90;100.00;94625.78;5110894;27;20051;-46
2022/03/04 04:46:02;;;;;;;28.08;13.25;;;;;;;-5.87;100.00;94630.56;5111285;27;20044;-46
2022/03/04 04:48:29;;;;;;;31.27;13.43;;;;;;;-5.89;100.00;94628.16;5111979;27;20518;-47
2022/03/04 04:50:59;;;;;;;38.38;14.18;;;;;;;-6.02;100.00;94615.78;5109890;27;20047;-46
2022/03/04 04:53:26;;;;;;;47.50;20.42;;;;;;;-6.00;100.00;94626.59;5110992;27;20066;-46
2022/03/04 04:55:54;;;;;;;19.17;11.45;;;;;;;-6.02;100.00;94635.28;5111025;27;20490;-46
2022/03/04 04:58:22;;;;;;;26.20;13.48;;;;;;;-6.08;100.00;94634.09;5112010;27;20373;-47
2022/03/04 05:00:53;;;;;;;29.77;15.75;;;;;;;-6.07;100.00;94635.66;5112859;27;20504;-47
2022/03/04 05:03:25;;;;;;;26.45;13.52;;;;;;;-6.06;100.00;94636.50;5112290;27;20475;-47
2022/03/04 05:05:53;;;;;;;40.30;17.55;;;;;;;-6.03;100.00;94634.50;5115273;27;20058;-46
2022/03/04 05:08:21;;;;;;;71.93;32.33;;;;;;;-5.97;100.00;94631.41;5112743;27;20039;-47
2022/03/04 05:10:48;;;;;;;28.58;16.98;;;;;;;-5.93;100.00;94636.19;5110719;27;20175;-45
2022/03/04 05:13:15;;;;;;;24.38;13.20;;;;;;;-5.88;100.00;94637.38;5111665;27;20095;-45
2022/03/04 05:15:42;;;;;;;33.30;16.63;;;;;;;-5.86;100.00;94632.19;5109419;27;20036;-47
2022/03/04 05:18:09;;;;;;;27.15;12.30;;;;;;;-5.83;100.00;94639.53;5109734;27;20055;-47
2022/03/04 05:20:36;;;;;;;25.15;13.45;;;;;;;-5.80;100.00;94631.63;5113155;27;20145;-46
2022/03/04 05:23:03;;;;;;;26.63;15.73;;;;;;;-5.75;100.00;94637.09;5111000;27;20104;-48
2022/03/04 05:25:30;;;;;;;45.25;24.35;;;;;;;-5.68;100.00;94640.69;5112644;27;20981;-46
2022/03/04 05:27:57;;;;;;;33.13;18.77;;;;;;;-5.64;100.00;94641.22;5110472;27;20123;-47
2022/03/04 05:30:23;;;;;;;27.75;14.63;;;;;;;-5.56;100.00;94648.97;5111169;27;20039;-49
2022/03/04 05:32:50;;;;;;;22.52;11.85;;;;;;;-5.57;100.00;94647.34;5110520;27;20497;-49
2022/03/04 05:35:17;;;;;;;16.30;9.95;;;;;;;-5.51;100.00;94651.06;5108968;27;20050;-46
2022/03/04 05:37:44;;;;;;;15.50;10.30;;;;;;;-5.51;100.00;94640.94;5111153;27;20129;-49
2022/03/04 05:40:11;;;;;;;18.63;9.63;;;;;;;-5.40;100.00;94653.47;5111151;27;20117;-46
2022/03/04 05:42:38;;;;;;;17.73;9.93;;;;;;;-5.31;100.00;94642.50;5111367;27;20104;-46
2022/03/04 05:45:05;;;;;;;19.45;10.02;;;;;;;-5.31;100.00;94642.50;5112738;27;20043;-46
2022/03/04 05:47:32;;;;;;;15.65;9.20;;;;;;;-5.20;100.00;94649.94;5110841;27;20051;-46
2022/03/04 05:49:59;;;;;;;17.58;9.52;;;;;;;-5.23;100.00;94655.28;5108358;27;20039;-49
2022/03/04 05:52:25;;;;;;;24.58;12.10;;;;;;;-5.16;100.00;94649.66;5111040;27;20069;-50
2022/03/04 05:54:52;;;;;;;26.60;13.63;;;;;;;-5.04;100.00;94648.53;5113889;27;20046;-46
2022/03/04 05:57:19;;;;;;;23.08;12.57;;;;;;;-4.91;100.00;94658.41;5110276;27;20054;-47
2022/03/04 05:59:46;;;;;;;30.80;17.25;;;;;;;-4.85;100.00;94658.63;5109646;27;20039;-46
2022/03/04 06:02:13;;;;;;;31.90;15.35;;;;;;;-4.80;100.00;94656.47;5110050;27;20036;-47
2022/03/04 06:04:40;;;;;;;28.48;14.95;;;;;;;-4.70;100.00;94650.53;5109815;27;20550;-48
2022/03/04 06:07:06;;;;;;;30.83;14.85;;;;;;;-4.58;100.00;94641.78;5110821;27;20055;-50
2022/03/04 06:09:34;;;;;;;35.88;16.45;;;;;;;-4.44;100.00;94656.56;5112100;27;20039;-50
2022/03/04 06:12:01;;;;;;;31.33;14.38;;;;;;;-4.32;100.00;94658.88;5090419;28;20245;-47
2022/03/04 06:14:28;;;;;;;32.25;16.50;;;;;;;-4.25;100.00;94649.75;5109532;27;20051;-47
2022/03/04 06:16:54;;;;;;;33.03;17.05;;;;;;;-4.11;100.00;94649.25;5111283;27;20044;-46
2022/03/04 06:19:21;;;;;;;34.67;18.90;;;;;;;-3.95;100.00;94645.25;5110974;27;20432;-46
2022/03/04 06:21:48;;;;;;;38.38;20.95;;;;;;;-3.81;100.00;94652.38;5110770;27;20036;-47
2022/03/04 06:24:15;;;;;;;39.40;20.45;;;;;;;-3.59;100.00;94660.50;5110771;27;20105;-47
2022/03/04 06:26:42;;;;;;;56.13;29.48;;;;;;;-3.47;100.00;94644.03;5106143;27;20047;-47
2022/03/04 06:29:08;;;;;;;58.65;28.55;;;;;;;-3.20;100.00;94655.03;5110211;27;20054;-46
2022/03/04 06:31:35;;;;;;;43.10;22.90;;;;;;;-2.97;100.00;94645.91;5113407;27;20047;-47
2022/03/04 06:34:02;;;;;;;45.42;23.58;;;;;;;-2.74;100.00;94650.47;5108063;27;20570;-47
2022/03/04 06:36:29;;;;;;;56.10;25.67;;;;;;;-2.57;100.00;94647.03;5109645;27;20090;-47
2022/03/04 06:38:55;;;;;;;47.15;25.50;;;;;;;-2.34;100.00;94647.25;5109507;27;20043;-47
2022/03/04 06:41:22;;;;;;;66.13;26.00;;;;;;;-2.12;100.00;94640.75;5109807;27;20526;-47
2022/03/04 06:43:49;;;;;;;96.68;28.67;;;;;;;-1.95;100.00;94649.22;5109130;27;20283;-51
2022/03/04 06:46:16;;;;;;;52.83;20.35;;;;;;;-1.81;100.00;94637.59;5109403;27;20062;-46
2022/03/04 06:48:43;;;;;;;73.88;28.00;;;;;;;-1.62;100.00;94645.91;5113782;27;20043;-46
2022/03/04 06:51:10;;;;;;;49.38;22.70;;;;;;;-1.49;100.00;94630.91;5107453;27;20039;-50
2022/03/04 06:53:37;;;;;;;53.88;22.75;;;;;;;-1.26;100.00;94645.53;5112447;27;20114;-49
2022/03/04 06:56:04;;;;;;;55.60;22.98;;;;;;;-1.14;100.00;94649.38;5110838;27;20047;-46
2022/03/04 06:58:31;;;;;;;41.58;21.77;;;;;;;-0.99;100.00;94657.97;5112069;27;20050;-46
2022/03/04 07:00:58;;;;;;;30.80;16.98;;;;;;;-0.92;99.42;94662.41;5108831;27;20513;-47
2022/03/04 07:03:26;;;;;;;65.38;31.90;;;;;;;-0.94;99.30;94661.78;5109569;27;20043;-46
2022/03/04 07:05:53;;;;;;;35.15;19.65;;;;;;;-1.16;100.00;94656.41;5109019;27;20048;-47
2022/03/04 07:08:20;;;;;;;33.33;17.85;;;;;;;-1.43;100.00;94660.91;5109616;27;20044;-50
2022/03/04 07:10:48;;;;;;;33.95;20.20;;;;;;;-1.66;100.00;94659.94;5109469;27;20070;-48
2022/03/04 07:13:15;;;;;;;52.22;25.83;;;;;;;-1.39;100.00;94669.84;5109750;27;20047;-49
2022/03/04 07:15:43;;;;;;;271.98;139.50;;;;;;;-1.35;100.00;94676.22;5107458;27;20425;-48
2022/03/04 07:18:10;;;;;;;63.05;37.58;;;;;;;-1.39;100.00;94677.53;5109267;27;20058;-48
2022/03/04 07:20:39;;;;;;;54.97;27.90;;;;;;;-1.25;100.00;94677.81;5109100;28;20051;-47
2022/03/04 07:23:06;;;;;;;45.38;23.27;;;;;;;-1.11;100.00;94669.50;5110276;28;20417;-50
2022/03/04 07:25:33;;;;;;;40.85;21.95;;;;;;;-1.02;100.00;94667.72;5109591;28;20132;-48
2022/03/04 07:28:00;;;;;;;39.22;18.58;;;;;;;-1.07;100.00;94668.19;5109505;28;20124;-46
2022/03/04 07:30:27;;;;;;;39.30;19.23;;;;;;;-1.15;99.54;94668.22;5109255;28;20489;-47
2022/03/04 07:32:54;;;;;;;43.00;20.65;;;;;;;-1.19;99.78;94679.72;5111959;28;20039;-47
2022/03/04 07:35:21;;;;;;;38.03;19.23;;;;;;;-1.26;100.00;94666.00;5108645;28;20443;-46
2022/03/04 07:37:48;;;;;;;38.92;17.85;;;;;;;-1.27;100.00;94679.75;5108447;28;20043;-46
2022/03/04 07:40:15;;;;;;;41.05;21.23;;;;;;;-1.14;100.00;94687.69;5108968;28;20099;-47
2022/03/04 07:42:42;;;;;;;33.65;16.63;;;;;;;-0.93;100.00;94686.41;5108875;28;20059;-48
2022/03/04 07:45:11;;;;;;;35.53;19.98;;;;;;;-0.80;100.00;94686.69;5108216;28;20437;-46
2022/03/04 07:47:41;;;;;;;36.75;18.83;;;;;;;-0.64;100.00;94691.75;5104500;28;20048;-47
2022/03/04 07:50:13;;;;;;;35.28;17.10;;;;;;;-0.43;99.93;94692.97;5106596;28;20054;-47
2022/03/04 07:52:41;;;;;;;35.97;17.88;;;;;;;-0.38;99.24;94680.44;5110427;28;20758;-47
2022/03/04 07:55:15;;;;;;;40.70;20.95;;;;;;;-0.45;99.40;94685.47;5111635;28;20104;-47
2022/03/04 07:57:43;;;;;;;26.23;14.07;;;;;;;-0.42;99.64;94686.88;5109228;28;20412;-46
2022/03/04 08:00:13;;;;;;;47.60;22.35;;;;;;;-0.28;99.66;94687.94;5106552;28;20043;-50
2022/03/04 08:02:41;;;;;;;37.47;21.50;;;;;;;-0.20;98.71;94688.72;5106964;28;20055;-49
2022/03/04 08:05:09;;;;;;;36.22;18.17;;;;;;;0.06;98.30;94682.47;5106936;28;20127;-46
2022/03/04 08:07:37;;;;;;;41.78;21.40;;;;;;;0.31;96.60;94688.25;5107319;28;20039;-46
2022/03/04 08:10:07;;;;;;;37.45;19.77;;;;;;;0.64;96.17;94685.44;5106171;28;20040;-47
2022/03/04 08:12:34;;;;;;;39.55;17.50;;;;;;;0.82;92.19;94692.81;5103612;28;20134;-50
2022/03/04 08:15:01;;;;;;;33.95;16.67;;;;;;;0.85;90.00;94687.34;5102189;28;20442;-50
2022/03/04 08:17:30;;;;;;;20.40;12.88;;;;;;;0.94;89.16;94691.44;5104382;28;20758;-46
2022/03/04 08:19:57;;;;;;;41.20;18.40;;;;;;;0.90;88.18;94695.31;5102328;28;20139;-48
2022/03/04 08:22:24;;;;;;;35.28;17.23;;;;;;;1.23;87.67;94691.66;5101740;28;20043;-47
2022/03/04 08:24:53;;;;;;;40.72;18.63;;;;;;;1.53;87.85;94689.84;5103582;28;20429;-46
2022/03/04 08:27:21;;;;;;;34.10;18.00;;;;;;;1.65;84.89;94691.00;5104337;28;20969;-49
2022/03/04 08:29:48;;;;;;;40.55;18.23;;;;;;;1.72;85.01;94703.94;5106140;27;20046;-46
2022/03/04 08:32:16;;;;;;;32.92;16.52;;;;;;;1.68;84.91;94693.22;5107111;27;20390;-47
2022/03/04 08:34:43;;;;;;;37.08;19.77;;;;;;;1.78;84.11;94703.19;5111993;27;20050;-49
2022/03/04 08:37:10;;;;;;;34.30;17.15;;;;;;;1.69;85.46;94697.38;5109615;27;20054;-47
2022/03/04 08:39:37;;;;;;;36.75;18.30;;;;;;;1.71;86.13;94703.13;5108235;27;20127;-47
2022/03/04 08:42:07;;;;;;;24.63;15.40;;;;;;;1.58;84.86;94708.09;5103677;27;20057;-48
2022/03/04 08:44:34;;;;;;;40.05;18.58;;;;;;;1.72;84.66;94704.72;5083742;27;20048;-51
2022/03/04 08:47:03;;;;;;;30.13;15.60;;;;;;;1.63;82.20;94705.78;5097738;27;20054;-46
2022/03/04 08:49:30;;;;;;;32.10;15.45;;;;;;;1.55;82.57;94697.38;5103046;27;20891;-50
2022/03/04 08:51:57;;;;;;;30.60;14.80;;;;;;;1.68;81.15;94697.56;5104019;27;20044;-50
2022/03/04 08:54:23;;;;;;;21.77;13.52;;;;;;;1.72;74.91;94704.72;5110601;27;20050;-48
2022/03/04 08:56:50;;;;;;;27.13;14.25;;;;;;;1.92;75.67;94699.03;5110701;27;20084;-47
2022/03/04 08:59:17;;;;;;;23.50;10.88;;;;;;;1.98;73.56;94708.59;5112797;27;20039;-47
2022/03/04 09:01:44;;;;;;;28.33;13.57;;;;;;;1.95;74.16;94698.69;5110335;27;20100;-47
2022/03/04 09:04:17;;;;;;;23.92;11.52;;;;;;;2.26;74.94;94697.63;5106391;27;20134;-47
2022/03/04 09:06:45;;;;;;;22.08;11.88;;;;;;;2.32;74.48;94694.31;5104966;27;20032;-49
2022/03/04 09:09:12;;;;;;;29.48;14.48;;;;;;;2.40;73.12;94689.06;5104297;27;20048;-49
2022/03/04 09:11:39;;;;;;;30.33;14.00;;;;;;;2.69;73.97;94689.91;5101517;27;20043;-48
2022/03/04 09:14:06;;;;;;;24.33;11.40;;;;;;;2.82;71.47;94692.56;5106702;27;20039;-47
2022/03/04 09:16:33;;;;;;;25.25;13.32;;;;;;;2.94;71.14;94697.25;5102820;27;20043;-51
2022/03/04 09:19:00;;;;;;;27.50;13.85;;;;;;;3.11;70.18;94693.38;5102447;27;20444;-47
2022/03/04 09:21:27;;;;;;;32.35;15.13;;;;;;;2.86;75.15;94687.84;5106467;27;20047;-48
2022/03/04 09:23:54;;;;;;;33.65;16.58;;;;;;;2.92;75.80;94694.84;5109839;27;20035;-47
2022/03/04 09:26:21;;;;;;;33.03;14.25;;;;;;;3.16;74.00;94696.19;5103143;27;20083;-47
2022/03/04 09:28:48;;;;;;;20.75;11.13;;;;;;;2.94;72.44;94703.16;5107480;27;20535;-46
2022/03/04 09:31:15;;;;;;;23.92;12.82;;;;;;;2.99;71.04;94694.88;5104135;27;20447;-50
2022/03/04 09:33:42;;;;;;;28.40;14.85;;;;;;;3.18;71.12;94699.38;5107264;27;20520;-51
2022/03/04 09:36:11;;;;;;;30.00;15.88;;;;;;;3.66;71.98;94695.31;5105024;27;20379;-49
2022/03/04 09:38:39;;;;;;;25.85;12.30;;;;;;;3.99;68.31;94696.22;5109267;27;20043;-47
2022/03/04 09:41:06;;;;;;;23.50;13.68;;;;;;;4.25;67.54;94701.66;5111109;27;20066;-48
2022/03/04 09:43:34;;;;;;;27.52;13.38;;;;;;;4.35;65.95;94695.13;5102043;27;20047;-46
2022/03/04 09:46:01;;;;;;;26.63;13.82;;;;;;;4.29;65.10;94698.50;5103093;27;20489;-50
2022/03/04 09:48:28;;;;;;;24.75;13.52;;;;;;;4.50;65.71;94697.56;5104930;27;20087;-47
2022/03/04 09:50:55;;;;;;;27.35;13.70;;;;;;;4.89;65.04;94690.03;5104699;27;20055;-48
2022/03/04 09:53:23;;;;;;;15.30;7.90;;;;;;;4.73;63.32;94697.16;5109959;27;20567;-49
2022/03/04 09:55:49;;;;;;;34.95;14.25;;;;;;;4.48;64.19;94698.72;5104935;27;20060;-47
2022/03/04 09:58:18;;;;;;;25.13;10.93;;;;;;;4.53;62.47;94691.22;5108896;27;20039;-48
2022/03/04 10:00:46;;;;;;;31.10;11.63;;;;;;;4.69;61.72;94690.81;5106241;27;20044;-49
2022/03/04 10:03:47;;;;;;;19.65;10.93;;;;;;;4.51;62.64;94677.72;5104215;27;20101;-46
2022/03/04 10:06:15;;;;;;;21.55;11.07;;;;;;;4.50;61.71;94681.28;5076311;27;20108;-47
2022/03/04 10:08:44;;;;;;;29.52;13.93;;;;;;;4.69;61.28;94677.94;5106988;27;20050;-46
2022/03/04 10:11:12;;;;;;;19.42;11.38;;;;;;;4.84;61.24;94671.78;5078108;27;20043;-51
2022/03/04 10:13:50;;;;;;;29.05;11.43;;;;;;;5.13;60.52;94681.72;5105585;27;20054;-46
2022/03/04 10:16:25;;;;;;;21.90;11.25;;;;;;;5.10;58.47;94687.25;5104006;27;20062;-48
2022/03/04 10:19:09;;;;;;;20.52;10.73;;;;;;;5.29;57.56;94674.53;5103972;27;20065;-46
2022/03/04 10:22:00;;;;;;;23.33;11.05;;;;;;;5.73;57.30;94670.44;5103478;27;20043;-46
2022/03/04 10:24:32;;;;;;;21.25;10.52;;;;;;;5.74;55.50;94672.00;5099585;27;20053;-46
2022/03/04 10:27:07;;;;;;;18.83;8.82;;;;;;;5.72;55.07;94658.50;5105599;27;20425;-47
2022/03/04 10:29:40;;;;;;;23.17;10.65;;;;;;;5.77;53.80;94671.63;5111648;27;20519;-49
2022/03/04 10:32:20;;;;;;;24.35;11.32;;;;;;;5.77;54.75;94676.78;5111068;27;20055;-50
2022/03/04 10:35:01;;;;;;;20.58;10.68;;;;;;;5.88;56.86;94667.59;5109800;27;20069;-47
2022/03/04 10:37:50;;;;;;;23.73;10.98;;;;;;;5.78;54.12;94662.88;5109501;27;20038;-47
2022/03/04 10:40:25;;;;;;;24.55;10.30;;;;;;;6.00;54.81;94660.03;5110741;27;20042;-46
2022/03/04 10:42:58;;;;;;;18.95;10.35;;;;;;;5.97;54.28;94660.44;5107332;27;20052;-47
2022/03/04 10:45:26;;;;;;;21.15;10.88;;;;;;;5.78;53.15;94654.31;5110722;27;20044;-46
2022/03/04 10:47:57;;;;;;;14.32;6.90;;;;;;;6.25;52.06;94642.78;5110305;27;20036;-46
2022/03/04 10:50:45;;;;;;;17.83;9.13;;;;;;;6.45;54.14;94636.69;5110639;27;20048;-46
2022/03/04 10:53:19;;;;;;;21.27;10.15;;;;;;;7.01;50.75;94635.84;5109226;27;20044;-46
2022/03/04 10:56:06;;;;;;;19.15;10.52;;;;;;;6.92;50.67;94629.38;5111511;27;20051;-47
2022/03/04 10:58:38;;;;;;;13.45;7.55;;;;;;;6.67;51.17;94630.16;5111911;27;20035;-46
2022/03/04 11:01:18;;;;;;;15.75;10.20;;;;;;;6.78;51.64;94626.09;5111583;27;20134;-47
2022/03/04 11:03:46;;;;;;;16.77;9.40;;;;;;;6.86;50.93;94622.44;5111146;27;20481;-46
2022/03/04 11:06:16;;;;;;;22.40;10.13;;;;;;;7.19;50.14;94616.19;5110936;27;20038;-46
2022/03/04 11:08:44;;;;;;;26.45;10.85;;;;;;;7.65;51.05;94609.69;5112701;27;20050;-46
2022/03/04 11:11:11;;;;;;;19.38;10.00;;;;;;;7.45;49.91;94609.91;5110109;27;20100;-49
2022/03/04 11:13:38;;;;;;;25.90;11.32;;;;;;;7.28;49.12;94594.16;5110874;27;20056;-47
2022/03/04 11:16:06;;;;;;;13.82;7.57;;;;;;;7.57;46.33;94612.59;5109494;27;20062;-47
2022/03/04 11:18:34;;;;;;;18.52;7.50;;;;;;;7.36;47.12;94601.63;5111790;27;20043;-48